Vine Grove, Kentucky
Current Conditions -  °F | °C
As of 5:06 AM on Sunday 25 Jan 2015 (Local Time) from KFTK Reporting Station
Broken Clouds Broken Clouds  
Wind Chill: 30°   Ceiling: 17000
Heat Index: 37°   Visibility: 10mi
Dew Point: 30°   Wind: 10mph
Humidity: 75%   Direction: 180°S
Pressure: 29.73"   Gusts: NA
Location:  37.81°N, 85.98°W
Report Text: KFTK 251006Z AUTO 18009KT 10SM SCT140 BKN170 03/M01 A2973 RMK AO2 PRESFR
Loading
Personal Weather Stations






























Interactive Weather Map New forecast layout! Learn more

10-Day Weather Forecast

Advertisements
Track Severe Weather on mobile